sensor_id;sensor_type;location;lat;lon;timestamp;P1;durP1;ratioP1;P2;durP2;ratioP2
55037;SDS011;40937;53.594;10.034;2024-01-27T00:00:32;33.03;;;7.65;;
55037;SDS011;40937;53.594;10.034;2024-01-27T00:03:00;33.30;;;6.22;;
55037;SDS011;40937;53.594;10.034;2024-01-27T00:05:28;39.75;;;7.57;;
55037;SDS011;40937;53.594;10.034;2024-01-27T00:07:55;36.72;;;6.53;;
55037;SDS011;40937;53.594;10.034;2024-01-27T00:10:22;32.45;;;7.28;;
55037;SDS011;40937;53.594;10.034;2024-01-27T00:12:51;35.33;;;7.18;;
55037;SDS011;40937;53.594;10.034;2024-01-27T00:15:18;39.85;;;6.82;;
55037;SDS011;40937;53.594;10.034;2024-01-27T00:17:45;30.58;;;6.60;;
55037;SDS011;40937;53.594;10.034;2024-01-27T00:20:12;37.25;;;6.78;;
55037;SDS011;40937;53.594;10.034;2024-01-27T00:22:40;37.40;;;7.78;;
55037;SDS011;40937;53.594;10.034;2024-01-27T00:25:07;39.00;;;7.35;;
55037;SDS011;40937;53.594;10.034;2024-01-27T00:27:35;30.98;;;7.05;;
55037;SDS011;40937;53.594;10.034;2024-01-27T00:30:04;34.20;;;6.57;;
55037;SDS011;40937;53.594;10.034;2024-01-27T00:32:33;37.08;;;7.78;;
55037;SDS011;40937;53.594;10.034;2024-01-27T00:35:00;28.60;;;6.43;;
55037;SDS011;40937;53.594;10.034;2024-01-27T00:37:28;30.98;;;7.03;;
55037;SDS011;40937;53.594;10.034;2024-01-27T00:39:55;35.85;;;7.57;;
55037;SDS011;40937;53.594;10.034;2024-01-27T00:42:23;30.58;;;5.80;;
55037;SDS011;40937;53.594;10.034;2024-01-27T00:44:50;40.78;;;6.75;;
55037;SDS011;40937;53.594;10.034;2024-01-27T00:47:19;30.55;;;6.68;;
55037;SDS011;40937;53.594;10.034;2024-01-27T00:49:46;32.42;;;6.35;;
55037;SDS011;40937;53.594;10.034;2024-01-27T00:52:15;34.78;;;7.30;;
55037;SDS011;40937;53.594;10.034;2024-01-27T00:54:42;25.27;;;6.18;;
55037;SDS011;40937;53.594;10.034;2024-01-27T00:57:09;31.00;;;7.07;;
55037;SDS011;40937;53.594;10.034;2024-01-27T00:59:36;40.80;;;6.20;;
55037;SDS011;40937;53.594;10.034;2024-01-27T01:02:04;31.20;;;7.90;;
55037;SDS011;40937;53.594;10.034;2024-01-27T01:04:33;38.78;;;8.00;;
55037;SDS011;40937;53.594;10.034;2024-01-27T01:07:00;26.02;;;6.15;;
55037;SDS011;40937;53.594;10.034;2024-01-27T01:09:27;36.25;;;7.10;;
55037;SDS011;40937;53.594;10.034;2024-01-27T01:11:55;30.30;;;6.65;;
55037;SDS011;40937;53.594;10.034;2024-01-27T01:14:22;43.85;;;6.65;;
55037;SDS011;40937;53.594;10.034;2024-01-27T01:16:49;32.55;;;6.75;;
55037;SDS011;40937;53.594;10.034;2024-01-27T01:19:16;36.03;;;6.35;;
55037;SDS011;40937;53.594;10.034;2024-01-27T01:21:45;55.10;;;8.32;;
55037;SDS011;40937;53.594;10.034;2024-01-27T01:24:12;29.98;;;6.82;;
55037;SDS011;40937;53.594;10.034;2024-01-27T01:26:39;30.70;;;7.13;;
55037;SDS011;40937;53.594;10.034;2024-01-27T01:29:06;34.85;;;8.07;;
55037;SDS011;40937;53.594;10.034;2024-01-27T01:31:34;48.45;;;7.85;;
55037;SDS011;40937;53.594;10.034;2024-01-27T01:34:01;31.42;;;7.47;;
55037;SDS011;40937;53.594;10.034;2024-01-27T01:36:28;36.67;;;7.22;;
55037;SDS011;40937;53.594;10.034;2024-01-27T01:38:57;33.03;;;6.90;;
55037;SDS011;40937;53.594;10.034;2024-01-27T01:41:24;31.55;;;6.70;;
55037;SDS011;40937;53.594;10.034;2024-01-27T01:43:51;35.50;;;6.53;;
55037;SDS011;40937;53.594;10.034;2024-01-27T01:46:18;26.63;;;6.10;;
55037;SDS011;40937;53.594;10.034;2024-01-27T01:48:45;33.35;;;7.00;;
55037;SDS011;40937;53.594;10.034;2024-01-27T01:51:13;35.90;;;7.10;;
55037;SDS011;40937;53.594;10.034;2024-01-27T01:53:40;34.40;;;6.18;;
55037;SDS011;40937;53.594;10.034;2024-01-27T01:56:09;43.25;;;6.25;;
55037;SDS011;40937;53.594;10.034;2024-01-27T01:58:37;33.78;;;7.15;;
55037;SDS011;40937;53.594;10.034;2024-01-27T02:01:04;36.22;;;7.32;;
55037;SDS011;40937;53.594;10.034;2024-01-27T02:03:31;40.45;;;7.20;;
55037;SDS011;40937;53.594;10.034;2024-01-27T02:05:58;30.90;;;5.85;;
55037;SDS011;40937;53.594;10.034;2024-01-27T02:08:25;37.15;;;7.10;;
55037;SDS011;40937;53.594;10.034;2024-01-27T02:10:52;37.33;;;6.75;;
55037;SDS011;40937;53.594;10.034;2024-01-27T02:13:22;38.75;;;7.20;;
55037;SDS011;40937;53.594;10.034;2024-01-27T02:15:50;33.80;;;6.47;;
55037;SDS011;40937;53.594;10.034;2024-01-27T02:18:18;31.77;;;6.95;;
55037;SDS011;40937;53.594;10.034;2024-01-27T02:20:46;26.42;;;6.93;;
55037;SDS011;40937;53.594;10.034;2024-01-27T02:23:13;33.22;;;7.07;;
55037;SDS011;40937;53.594;10.034;2024-01-27T02:25:42;35.70;;;6.72;;
55037;SDS011;40937;53.594;10.034;2024-01-27T02:28:09;30.23;;;6.70;;
55037;SDS011;40937;53.594;10.034;2024-01-27T02:30:38;28.60;;;6.25;;
55037;SDS011;40937;53.594;10.034;2024-01-27T02:33:05;33.65;;;6.50;;
55037;SDS011;40937;53.594;10.034;2024-01-27T02:35:32;33.00;;;6.60;;
55037;SDS011;40937;53.594;10.034;2024-01-27T02:37:59;34.47;;;7.43;;
55037;SDS011;40937;53.594;10.034;2024-01-27T02:40:27;31.85;;;6.68;;
55037;SDS011;40937;53.594;10.034;2024-01-27T02:42:55;43.42;;;7.28;;
55037;SDS011;40937;53.594;10.034;2024-01-27T02:45:22;44.92;;;6.85;;
55037;SDS011;40937;53.594;10.034;2024-01-27T02:47:50;39.65;;;6.28;;
55037;SDS011;40937;53.594;10.034;2024-01-27T02:50:17;41.67;;;6.72;;
55037;SDS011;40937;53.594;10.034;2024-01-27T02:52:44;42.53;;;7.65;;
55037;SDS011;40937;53.594;10.034;2024-01-27T02:55:12;37.38;;;5.63;;
55037;SDS011;40937;53.594;10.034;2024-01-27T02:57:40;27.55;;;6.70;;
55037;SDS011;40937;53.594;10.034;2024-01-27T03:00:09;30.63;;;5.97;;
55037;SDS011;40937;53.594;10.034;2024-01-27T03:02:37;31.20;;;6.22;;
55037;SDS011;40937;53.594;10.034;2024-01-27T03:05:04;33.15;;;6.15;;
55037;SDS011;40937;53.594;10.034;2024-01-27T03:07:33;32.25;;;5.72;;
55037;SDS011;40937;53.594;10.034;2024-01-27T03:10:01;43.53;;;6.00;;
55037;SDS011;40937;53.594;10.034;2024-01-27T03:12:28;36.72;;;7.28;;
55037;SDS011;40937;53.594;10.034;2024-01-27T03:14:55;31.20;;;7.30;;
55037;SDS011;40937;53.594;10.034;2024-01-27T03:17:24;35.80;;;7.10;;
55037;SDS011;40937;53.594;10.034;2024-01-27T03:19:51;33.28;;;6.35;;
55037;SDS011;40937;53.594;10.034;2024-01-27T03:22:18;31.27;;;6.45;;
55037;SDS011;40937;53.594;10.034;2024-01-27T03:24:46;24.10;;;6.38;;
55037;SDS011;40937;53.594;10.034;2024-01-27T03:27:13;41.58;;;7.38;;
55037;SDS011;40937;53.594;10.034;2024-01-27T03:29:40;34.33;;;7.05;;
55037;SDS011;40937;53.594;10.034;2024-01-27T03:32:07;33.67;;;6.97;;
55037;SDS011;40937;53.594;10.034;2024-01-27T03:34:36;37.45;;;7.35;;
55037;SDS011;40937;53.594;10.034;2024-01-27T03:37:03;28.63;;;6.43;;
55037;SDS011;40937;53.594;10.034;2024-01-27T03:39:30;27.73;;;6.07;;
55037;SDS011;40937;53.594;10.034;2024-01-27T03:41:57;30.35;;;6.40;;
55037;SDS011;40937;53.594;10.034;2024-01-27T03:44:24;34.60;;;6.75;;
55037;SDS011;40937;53.594;10.034;2024-01-27T03:46:51;30.98;;;7.93;;
55037;SDS011;40937;53.594;10.034;2024-01-27T03:49:19;31.40;;;7.50;;
55037;SDS011;40937;53.594;10.034;2024-01-27T03:51:47;28.13;;;6.60;;
55037;SDS011;40937;53.594;10.034;2024-01-27T03:54:14;37.20;;;6.97;;
55037;SDS011;40937;53.594;10.034;2024-01-27T03:56:41;35.38;;;6.82;;
55037;SDS011;40937;53.594;10.034;2024-01-27T03:59:09;40.88;;;7.55;;
55037;SDS011;40937;53.594;10.034;2024-01-27T04:01:37;32.13;;;6.82;;
55037;SDS011;40937;53.594;10.034;2024-01-27T04:04:04;28.70;;;6.63;;
55037;SDS011;40937;53.594;10.034;2024-01-27T04:06:35;37.03;;;5.93;;
55037;SDS011;40937;53.594;10.034;2024-01-27T04:09:04;38.45;;;7.00;;
55037;SDS011;40937;53.594;10.034;2024-01-27T04:11:34;32.05;;;6.85;;
55037;SDS011;40937;53.594;10.034;2024-01-27T04:14:01;39.78;;;7.05;;
55037;SDS011;40937;53.594;10.034;2024-01-27T04:16:30;41.50;;;6.65;;
55037;SDS011;40937;53.594;10.034;2024-01-27T04:18:57;31.10;;;7.43;;
55037;SDS011;40937;53.594;10.034;2024-01-27T04:21:24;26.75;;;6.90;;
55037;SDS011;40937;53.594;10.034;2024-01-27T04:23:52;37.78;;;7.25;;
55037;SDS011;40937;53.594;10.034;2024-01-27T04:26:20;28.30;;;6.75;;
55037;SDS011;40937;53.594;10.034;2024-01-27T04:28:47;29.73;;;6.20;;
55037;SDS011;40937;53.594;10.034;2024-01-27T04:31:14;37.65;;;8.10;;
55037;SDS011;40937;53.594;10.034;2024-01-27T04:33:42;28.90;;;6.68;;
55037;SDS011;40937;53.594;10.034;2024-01-27T04:36:09;34.40;;;6.97;;
55037;SDS011;40937;53.594;10.034;2024-01-27T04:38:36;26.50;;;5.88;;
55037;SDS011;40937;53.594;10.034;2024-01-27T04:41:04;35.95;;;6.97;;
55037;SDS011;40937;53.594;10.034;2024-01-27T04:43:32;38.08;;;7.22;;
55037;SDS011;40937;53.594;10.034;2024-01-27T04:45:59;37.97;;;7.47;;
55037;SDS011;40937;53.594;10.034;2024-01-27T04:48:26;28.25;;;6.43;;
55037;SDS011;40937;53.594;10.034;2024-01-27T04:50:54;35.38;;;7.80;;
55037;SDS011;40937;53.594;10.034;2024-01-27T04:53:22;42.53;;;6.25;;
55037;SDS011;40937;53.594;10.034;2024-01-27T04:55:49;30.88;;;6.40;;
55037;SDS011;40937;53.594;10.034;2024-01-27T04:58:16;31.58;;;6.32;;
55037;SDS011;40937;53.594;10.034;2024-01-27T05:00:45;28.83;;;6.90;;
55037;SDS011;40937;53.594;10.034;2024-01-27T05:03:12;34.78;;;6.47;;
55037;SDS011;40937;53.594;10.034;2024-01-27T05:05:40;39.80;;;7.05;;
55037;SDS011;40937;53.594;10.034;2024-01-27T05:08:08;29.75;;;7.22;;
55037;SDS011;40937;53.594;10.034;2024-01-27T05:10:35;34.10;;;6.95;;
55037;SDS011;40937;53.594;10.034;2024-01-27T05:13:03;36.22;;;7.25;;
55037;SDS011;40937;53.594;10.034;2024-01-27T05:15:30;39.78;;;8.18;;
55037;SDS011;40937;53.594;10.034;2024-01-27T05:17:59;31.50;;;7.13;;
55037;SDS011;40937;53.594;10.034;2024-01-27T05:20:26;35.35;;;7.10;;
55037;SDS011;40937;53.594;10.034;2024-01-27T05:22:53;39.47;;;7.05;;
55037;SDS011;40937;53.594;10.034;2024-01-27T05:25:20;28.73;;;7.25;;
55037;SDS011;40937;53.594;10.034;2024-01-27T05:27:48;30.92;;;6.35;;
55037;SDS011;40937;53.594;10.034;2024-01-27T05:30:15;41.50;;;7.03;;
55037;SDS011;40937;53.594;10.034;2024-01-27T05:32:44;32.97;;;8.70;;
55037;SDS011;40937;53.594;10.034;2024-01-27T05:35:12;32.42;;;6.57;;
55037;SDS011;40937;53.594;10.034;2024-01-27T05:37:40;34.03;;;7.38;;
55037;SDS011;40937;53.594;10.034;2024-01-27T05:40:07;31.15;;;7.10;;
55037;SDS011;40937;53.594;10.034;2024-01-27T05:42:36;40.15;;;7.75;;
55037;SDS011;40937;53.594;10.034;2024-01-27T05:45:03;31.20;;;6.93;;
55037;SDS011;40937;53.594;10.034;2024-01-27T05:47:31;30.27;;;7.10;;
55037;SDS011;40937;53.594;10.034;2024-01-27T05:49:58;41.85;;;7.07;;
55037;SDS011;40937;53.594;10.034;2024-01-27T05:52:27;22.42;;;5.93;;
55037;SDS011;40937;53.594;10.034;2024-01-27T05:54:54;39.35;;;6.50;;
55037;SDS011;40937;53.594;10.034;2024-01-27T05:57:21;31.55;;;6.43;;
55037;SDS011;40937;53.594;10.034;2024-01-27T05:59:49;30.58;;;6.80;;
55037;SDS011;40937;53.594;10.034;2024-01-27T06:02:16;41.60;;;6.97;;
55037;SDS011;40937;53.594;10.034;2024-01-27T06:04:43;31.77;;;6.93;;
55037;SDS011;40937;53.594;10.034;2024-01-27T06:07:11;47.90;;;7.43;;
55037;SDS011;40937;53.594;10.034;2024-01-27T06:09:39;33.03;;;6.35;;
55037;SDS011;40937;53.594;10.034;2024-01-27T06:12:06;38.70;;;7.32;;
55037;SDS011;40937;53.594;10.034;2024-01-27T06:14:33;30.65;;;5.85;;
55037;SDS011;40937;53.594;10.034;2024-01-27T06:17:01;41.35;;;7.35;;
55037;SDS011;40937;53.594;10.034;2024-01-27T06:19:29;27.80;;;5.75;;
55037;SDS011;40937;53.594;10.034;2024-01-27T06:21:57;36.28;;;6.80;;
55037;SDS011;40937;53.594;10.034;2024-01-27T06:24:24;30.48;;;7.57;;
55037;SDS011;40937;53.594;10.034;2024-01-27T06:26:52;35.75;;;6.05;;
55037;SDS011;40937;53.594;10.034;2024-01-27T06:29:18;29.48;;;6.70;;
55037;SDS011;40937;53.594;10.034;2024-01-27T06:31:46;29.50;;;6.45;;
55037;SDS011;40937;53.594;10.034;2024-01-27T06:34:13;28.70;;;6.47;;
55037;SDS011;40937;53.594;10.034;2024-01-27T06:36:40;23.83;;;7.00;;
55037;SDS011;40937;53.594;10.034;2024-01-27T06:39:07;40.63;;;7.18;;
55037;SDS011;40937;53.594;10.034;2024-01-27T06:41:35;41.85;;;7.10;;
55037;SDS011;40937;53.594;10.034;2024-01-27T06:44:04;31.58;;;6.88;;
55037;SDS011;40937;53.594;10.034;2024-01-27T06:46:31;27.63;;;6.78;;
55037;SDS011;40937;53.594;10.034;2024-01-27T06:48:58;39.17;;;6.75;;
55037;SDS011;40937;53.594;10.034;2024-01-27T06:51:25;29.45;;;6.80;;
55037;SDS011;40937;53.594;10.034;2024-01-27T06:53:52;28.67;;;5.88;;
55037;SDS011;40937;53.594;10.034;2024-01-27T06:56:19;28.63;;;6.45;;
55037;SDS011;40937;53.594;10.034;2024-01-27T06:58:47;29.70;;;6.43;;
55037;SDS011;40937;53.594;10.034;2024-01-27T07:01:15;38.00;;;7.22;;
55037;SDS011;40937;53.594;10.034;2024-01-27T07:03:43;32.25;;;6.28;;
55037;SDS011;40937;53.594;10.034;2024-01-27T07:06:10;28.13;;;6.40;;
55037;SDS011;40937;53.594;10.034;2024-01-27T07:08:37;34.75;;;6.85;;
55037;SDS011;40937;53.594;10.034;2024-01-27T07:11:04;31.10;;;6.88;;
55037;SDS011;40937;53.594;10.034;2024-01-27T07:13:32;34.47;;;5.70;;
55037;SDS011;40937;53.594;10.034;2024-01-27T07:15:59;22.70;;;5.85;;
55037;SDS011;40937;53.594;10.034;2024-01-27T07:18:27;38.30;;;6.35;;
55037;SDS011;40937;53.594;10.034;2024-01-27T07:20:55;31.80;;;7.13;;
55037;SDS011;40937;53.594;10.034;2024-01-27T07:23:25;24.00;;;5.07;;
55037;SDS011;40937;53.594;10.034;2024-01-27T07:25:52;23.23;;;5.85;;
55037;SDS011;40937;53.594;10.034;2024-01-27T07:28:19;25.73;;;5.90;;
55037;SDS011;40937;53.594;10.034;2024-01-27T07:30:46;28.70;;;6.18;;
55037;SDS011;40937;53.594;10.034;2024-01-27T07:33:13;27.02;;;5.43;;
55037;SDS011;40937;53.594;10.034;2024-01-27T07:35:42;22.02;;;6.32;;
55037;SDS011;40937;53.594;10.034;2024-01-27T07:38:09;28.55;;;6.63;;
55037;SDS011;40937;53.594;10.034;2024-01-27T07:40:36;31.23;;;5.63;;
55037;SDS011;40937;53.594;10.034;2024-01-27T07:43:04;32.78;;;6.07;;
55037;SDS011;40937;53.594;10.034;2024-01-27T07:45:31;27.98;;;5.70;;
55037;SDS011;40937;53.594;10.034;2024-01-27T07:47:58;33.95;;;6.85;;
55037;SDS011;40937;53.594;10.034;2024-01-27T07:50:25;25.90;;;6.32;;
55037;SDS011;40937;53.594;10.034;2024-01-27T07:52:54;27.98;;;5.60;;
55037;SDS011;40937;53.594;10.034;2024-01-27T07:55:21;26.63;;;5.03;;
55037;SDS011;40937;53.594;10.034;2024-01-27T07:57:49;25.88;;;5.93;;
55037;SDS011;40937;53.594;10.034;2024-01-27T08:00:16;30.27;;;6.30;;
55037;SDS011;40937;53.594;10.034;2024-01-27T08:02:44;25.77;;;5.68;;
55037;SDS011;40937;53.594;10.034;2024-01-27T08:05:11;24.83;;;6.32;;
55037;SDS011;40937;53.594;10.034;2024-01-27T08:07:38;28.10;;;5.93;;
55037;SDS011;40937;53.594;10.034;2024-01-27T08:10:07;25.55;;;5.13;;
55037;SDS011;40937;53.594;10.034;2024-01-27T08:12:36;18.90;;;5.60;;
55037;SDS011;40937;53.594;10.034;2024-01-27T08:15:05;24.20;;;5.53;;
55037;SDS011;40937;53.594;10.034;2024-01-27T08:17:33;23.35;;;5.72;;
55037;SDS011;40937;53.594;10.034;2024-01-27T08:20:01;27.92;;;5.70;;
55037;SDS011;40937;53.594;10.034;2024-01-27T08:22:39;32.72;;;5.35;;
55037;SDS011;40937;53.594;10.034;2024-01-27T08:25:09;31.10;;;6.45;;
55037;SDS011;40937;53.594;10.034;2024-01-27T08:27:43;24.70;;;5.57;;
55037;SDS011;40937;53.594;10.034;2024-01-27T08:30:11;23.15;;;4.57;;
55037;SDS011;40937;53.594;10.034;2024-01-27T08:32:39;20.48;;;5.45;;
55037;SDS011;40937;53.594;10.034;2024-01-27T08:35:07;17.95;;;5.10;;
55037;SDS011;40937;53.594;10.034;2024-01-27T08:37:35;21.33;;;4.88;;
55037;SDS011;40937;53.594;10.034;2024-01-27T08:40:05;26.00;;;5.80;;
55037;SDS011;40937;53.594;10.034;2024-01-27T08:42:34;20.50;;;4.95;;
55037;SDS011;40937;53.594;10.034;2024-01-27T08:45:06;26.90;;;5.97;;
55037;SDS011;40937;53.594;10.034;2024-01-27T08:47:35;22.60;;;5.13;;
55037;SDS011;40937;53.594;10.034;2024-01-27T08:50:07;24.50;;;5.78;;
55037;SDS011;40937;53.594;10.034;2024-01-27T08:52:36;21.75;;;5.85;;
55037;SDS011;40937;53.594;10.034;2024-01-27T08:55:04;26.38;;;5.70;;
55037;SDS011;40937;53.594;10.034;2024-01-27T08:57:32;25.48;;;5.50;;
55037;SDS011;40937;53.594;10.034;2024-01-27T09:00:00;21.67;;;4.68;;
55037;SDS011;40937;53.594;10.034;2024-01-27T09:02:29;20.92;;;6.38;;
55037;SDS011;40937;53.594;10.034;2024-01-27T09:04:59;24.23;;;5.70;;
55037;SDS011;40937;53.594;10.034;2024-01-27T09:07:29;21.27;;;5.05;;
55037;SDS011;40937;53.594;10.034;2024-01-27T09:09:58;19.75;;;5.20;;
55037;SDS011;40937;53.594;10.034;2024-01-27T09:12:25;28.77;;;5.68;;
55037;SDS011;40937;53.594;10.034;2024-01-27T09:14:53;22.30;;;5.63;;
55037;SDS011;40937;53.594;10.034;2024-01-27T09:17:34;18.42;;;5.00;;
55037;SDS011;40937;53.594;10.034;2024-01-27T09:20:06;24.88;;;5.03;;
55037;SDS011;40937;53.594;10.034;2024-01-27T09:22:37;20.15;;;5.65;;
55037;SDS011;40937;53.594;10.034;2024-01-27T09:25:08;23.48;;;5.78;;
55037;SDS011;40937;53.594;10.034;2024-01-27T09:27:36;24.15;;;5.65;;
55037;SDS011;40937;53.594;10.034;2024-01-27T09:30:03;23.52;;;6.25;;
55037;SDS011;40937;53.594;10.034;2024-01-27T09:32:34;25.08;;;5.25;;
55037;SDS011;40937;53.594;10.034;2024-01-27T09:35:02;20.23;;;5.47;;
55037;SDS011;40937;53.594;10.034;2024-01-27T09:37:35;22.35;;;5.70;;
55037;SDS011;40937;53.594;10.034;2024-01-27T09:40:02;26.02;;;5.53;;
55037;SDS011;40937;53.594;10.034;2024-01-27T09:42:30;23.27;;;5.18;;
55037;SDS011;40937;53.594;10.034;2024-01-27T09:45:00;28.60;;;5.78;;
55037;SDS011;40937;53.594;10.034;2024-01-27T09:47:29;27.48;;;6.43;;
55037;SDS011;40937;53.594;10.034;2024-01-27T09:49:58;20.80;;;4.80;;
55037;SDS011;40937;53.594;10.034;2024-01-27T09:52:25;18.05;;;4.82;;
55037;SDS011;40937;53.594;10.034;2024-01-27T09:54:54;24.25;;;4.95;;
55037;SDS011;40937;53.594;10.034;2024-01-27T09:57:25;29.15;;;6.28;;
55037;SDS011;40937;53.594;10.034;2024-01-27T09:59:52;21.67;;;4.88;;
55037;SDS011;40937;53.594;10.034;2024-01-27T10:02:21;23.02;;;5.45;;
55037;SDS011;40937;53.594;10.034;2024-01-27T10:04:51;19.65;;;5.38;;
55037;SDS011;40937;53.594;10.034;2024-01-27T10:07:19;15.38;;;4.63;;
55037;SDS011;40937;53.594;10.034;2024-01-27T10:09:48;18.00;;;4.45;;
55037;SDS011;40937;53.594;10.034;2024-01-27T10:12:15;22.58;;;5.30;;
55037;SDS011;40937;53.594;10.034;2024-01-27T10:14:44;23.00;;;5.65;;
55037;SDS011;40937;53.594;10.034;2024-01-27T10:17:19;27.17;;;5.15;;
55037;SDS011;40937;53.594;10.034;2024-01-27T10:19:48;20.55;;;5.93;;
55037;SDS011;40937;53.594;10.034;2024-01-27T10:22:27;21.20;;;5.63;;
55037;SDS011;40937;53.594;10.034;2024-01-27T10:24:54;18.40;;;5.60;;
55037;SDS011;40937;53.594;10.034;2024-01-27T10:27:22;19.00;;;5.07;;
55037;SDS011;40937;53.594;10.034;2024-01-27T10:29:52;22.58;;;5.15;;
55037;SDS011;40937;53.594;10.034;2024-01-27T10:32:20;16.60;;;4.80;;
55037;SDS011;40937;53.594;10.034;2024-01-27T10:34:49;18.52;;;4.70;;
55037;SDS011;40937;53.594;10.034;2024-01-27T10:37:23;20.70;;;5.00;;
55037;SDS011;40937;53.594;10.034;2024-01-27T10:40:00;18.30;;;5.28;;
55037;SDS011;40937;53.594;10.034;2024-01-27T10:42:31;16.20;;;4.88;;
55037;SDS011;40937;53.594;10.034;2024-01-27T10:45:02;24.38;;;6.25;;
55037;SDS011;40937;53.594;10.034;2024-01-27T10:47:32;25.23;;;5.40;;
55037;SDS011;40937;53.594;10.034;2024-01-27T10:50:00;22.67;;;5.05;;
55037;SDS011;40937;53.594;10.034;2024-01-27T10:52:29;22.98;;;5.35;;
55037;SDS011;40937;53.594;10.034;2024-01-27T10:55:02;19.80;;;4.22;;
55037;SDS011;40937;53.594;10.034;2024-01-27T10:57:36;22.17;;;5.15;;
55037;SDS011;40937;53.594;10.034;2024-01-27T11:00:04;20.23;;;4.80;;
55037;SDS011;40937;53.594;10.034;2024-01-27T11:02:35;23.23;;;4.68;;
55037;SDS011;40937;53.594;10.034;2024-01-27T11:05:04;17.15;;;5.35;;
55037;SDS011;40937;53.594;10.034;2024-01-27T11:07:34;24.02;;;5.30;;
55037;SDS011;40937;53.594;10.034;2024-01-27T11:10:03;21.80;;;6.18;;
55037;SDS011;40937;53.594;10.034;2024-01-27T11:12:33;16.17;;;4.55;;
55037;SDS011;40937;53.594;10.034;2024-01-27T11:15:02;23.25;;;5.40;;
55037;SDS011;40937;53.594;10.034;2024-01-27T11:17:37;20.63;;;5.18;;
55037;SDS011;40937;53.594;10.034;2024-01-27T11:20:06;20.10;;;5.70;;
55037;SDS011;40937;53.594;10.034;2024-01-27T11:22:35;25.27;;;4.07;;
55037;SDS011;40937;53.594;10.034;2024-01-27T11:25:14;27.35;;;5.68;;
55037;SDS011;40937;53.594;10.034;2024-01-27T11:27:43;25.75;;;5.28;;
55037;SDS011;40937;53.594;10.034;2024-01-27T11:30:24;20.77;;;4.82;;
55037;SDS011;40937;53.594;10.034;2024-01-27T11:32:54;17.75;;;4.55;;
55037;SDS011;40937;53.594;10.034;2024-01-27T11:35:24;21.38;;;5.22;;
55037;SDS011;40937;53.594;10.034;2024-01-27T11:37:54;21.80;;;5.07;;
55037;SDS011;40937;53.594;10.034;2024-01-27T11:40:23;13.75;;;5.55;;
55037;SDS011;40937;53.594;10.034;2024-01-27T11:42:54;20.85;;;5.10;;
55037;SDS011;40937;53.594;10.034;2024-01-27T11:45:22;20.80;;;4.40;;
55037;SDS011;40937;53.594;10.034;2024-01-27T11:47:50;15.75;;;4.68;;
55037;SDS011;40937;53.594;10.034;2024-01-27T11:50:17;20.73;;;4.55;;
55037;SDS011;40937;53.594;10.034;2024-01-27T11:52:46;19.42;;;5.22;;
55037;SDS011;40937;53.594;10.034;2024-01-27T11:55:15;19.25;;;4.97;;
55037;SDS011;40937;53.594;10.034;2024-01-27T11:57:46;17.38;;;4.25;;
55037;SDS011;40937;53.594;10.034;2024-01-27T12:00:16;18.13;;;4.45;;
55037;SDS011;40937;53.594;10.034;2024-01-27T12:02:46;24.05;;;4.75;;
55037;SDS011;40937;53.594;10.034;2024-01-27T12:05:19;19.60;;;4.93;;
55037;SDS011;40937;53.594;10.034;2024-01-27T12:07:52;18.17;;;4.28;;
55037;SDS011;40937;53.594;10.034;2024-01-27T12:10:25;15.02;;;4.15;;
55037;SDS011;40937;53.594;10.034;2024-01-27T12:12:54;23.00;;;5.00;;
55037;SDS011;40937;53.594;10.034;2024-01-27T12:15:24;14.73;;;4.45;;
55037;SDS011;40937;53.594;10.034;2024-01-27T12:17:52;12.77;;;4.18;;
55037;SDS011;40937;53.594;10.034;2024-01-27T12:20:21;23.70;;;4.80;;
55037;SDS011;40937;53.594;10.034;2024-01-27T12:22:50;16.70;;;4.28;;
55037;SDS011;40937;53.594;10.034;2024-01-27T12:25:20;19.08;;;4.93;;
55037;SDS011;40937;53.594;10.034;2024-01-27T12:27:47;16.13;;;4.35;;
55037;SDS011;40937;53.594;10.034;2024-01-27T12:30:17;20.63;;;5.10;;
55037;SDS011;40937;53.594;10.034;2024-01-27T12:32:45;21.25;;;5.72;;
55037;SDS011;40937;53.594;10.034;2024-01-27T12:35:15;15.95;;;4.55;;
55037;SDS011;40937;53.594;10.034;2024-01-27T12:37:45;15.25;;;4.35;;
55037;SDS011;40937;53.594;10.034;2024-01-27T12:40:16;20.27;;;5.32;;
55037;SDS011;40937;53.594;10.034;2024-01-27T12:42:44;16.55;;;4.40;;
55037;SDS011;40937;53.594;10.034;2024-01-27T12:45:12;21.23;;;5.50;;
55037;SDS011;40937;53.594;10.034;2024-01-27T12:47:40;18.23;;;3.75;;
55037;SDS011;40937;53.594;10.034;2024-01-27T12:50:08;19.85;;;4.47;;
55037;SDS011;40937;53.594;10.034;2024-01-27T12:52:36;16.40;;;4.57;;
55037;SDS011;40937;53.594;10.034;2024-01-27T12:55:04;20.65;;;4.88;;
55037;SDS011;40937;53.594;10.034;2024-01-27T12:57:31;17.42;;;4.80;;
55037;SDS011;40937;53.594;10.034;2024-01-27T13:00:02;19.90;;;4.47;;
55037;SDS011;40937;53.594;10.034;2024-01-27T13:02:35;14.38;;;4.20;;
55037;SDS011;40937;53.594;10.034;2024-01-27T13:05:04;13.75;;;3.88;;
55037;SDS011;40937;53.594;10.034;2024-01-27T13:07:33;20.77;;;4.72;;
55037;SDS011;40937;53.594;10.034;2024-01-27T13:10:01;16.63;;;4.75;;
55037;SDS011;40937;53.594;10.034;2024-01-27T13:12:31;20.73;;;5.18;;
55037;SDS011;40937;53.594;10.034;2024-01-27T13:14:59;16.92;;;5.63;;
55037;SDS011;40937;53.594;10.034;2024-01-27T13:17:29;20.42;;;5.05;;
55037;SDS011;40937;53.594;10.034;2024-01-27T13:19:58;19.20;;;4.75;;
55037;SDS011;40937;53.594;10.034;2024-01-27T13:22:27;18.58;;;4.90;;
55037;SDS011;40937;53.594;10.034;2024-01-27T13:24:54;16.02;;;4.65;;
55037;SDS011;40937;53.594;10.034;2024-01-27T13:27:27;17.42;;;4.97;;
55037;SDS011;40937;53.594;10.034;2024-01-27T13:29:54;16.17;;;4.25;;
55037;SDS011;40937;53.594;10.034;2024-01-27T13:32:21;19.25;;;5.15;;
55037;SDS011;40937;53.594;10.034;2024-01-27T13:34:48;16.90;;;4.30;;
55037;SDS011;40937;53.594;10.034;2024-01-27T13:37:16;21.10;;;5.28;;
55037;SDS011;40937;53.594;10.034;2024-01-27T13:39:46;20.75;;;4.20;;
55037;SDS011;40937;53.594;10.034;2024-01-27T13:42:13;13.18;;;3.60;;
55037;SDS011;40937;53.594;10.034;2024-01-27T13:44:43;22.10;;;4.57;;
55037;SDS011;40937;53.594;10.034;2024-01-27T13:47:11;19.35;;;5.30;;
55037;SDS011;40937;53.594;10.034;2024-01-27T13:49:42;11.60;;;4.35;;
55037;SDS011;40937;53.594;10.034;2024-01-27T13:52:10;13.60;;;4.75;;
55037;SDS011;40937;53.594;10.034;2024-01-27T13:54:47;28.27;;;6.00;;
55037;SDS011;40937;53.594;10.034;2024-01-27T13:57:17;19.17;;;4.57;;
55037;SDS011;40937;53.594;10.034;2024-01-27T13:59:47;21.10;;;5.13;;
55037;SDS011;40937;53.594;10.034;2024-01-27T14:02:15;28.23;;;6.38;;
55037;SDS011;40937;53.594;10.034;2024-01-27T14:04:43;17.17;;;5.22;;
55037;SDS011;40937;53.594;10.034;2024-01-27T14:07:10;19.40;;;5.00;;
55037;SDS011;40937;53.594;10.034;2024-01-27T14:09:37;19.60;;;5.57;;
55037;SDS011;40937;53.594;10.034;2024-01-27T14:12:07;19.88;;;5.40;;
55037;SDS011;40937;53.594;10.034;2024-01-27T14:14:35;17.80;;;4.90;;
55037;SDS011;40937;53.594;10.034;2024-01-27T14:17:04;16.75;;;4.70;;
55037;SDS011;40937;53.594;10.034;2024-01-27T14:19:32;21.17;;;5.38;;
55037;SDS011;40937;53.594;10.034;2024-01-27T14:22:03;28.58;;;5.78;;
55037;SDS011;40937;53.594;10.034;2024-01-27T14:24:31;20.75;;;5.70;;
55037;SDS011;40937;53.594;10.034;2024-01-27T14:26:59;17.58;;;5.15;;